sensor_id;sensor_type;location;lat;lon;timestamp;pressure;altitude;pressure_sealevel;temperature;humidity
69239;BME280;56349;51.816;-0.026;2023-03-14T00:00:38;97986.27;;;27.85;26.33
69239;BME280;56349;51.816;-0.026;2023-03-14T00:03:04;97985.57;;;28.02;26.33
69239;BME280;56349;51.816;-0.026;2023-03-14T00:05:30;97989.54;;;28.14;26.29
69239;BME280;56349;51.816;-0.026;2023-03-14T00:07:56;97986.75;;;28.01;26.24
69239;BME280;56349;51.816;-0.026;2023-03-14T00:10:22;97985.19;;;28.07;26.30
69239;BME280;56349;51.816;-0.026;2023-03-14T00:12:48;97985.16;;;27.63;26.33
69239;BME280;56349;51.816;-0.026;2023-03-14T00:15:14;97986.94;;;27.72;26.37
69239;BME280;56349;51.816;-0.026;2023-03-14T00:17:43;97986.70;;;27.51;26.44
69239;BME280;56349;51.816;-0.026;2023-03-14T00:20:08;97985.65;;;27.50;26.55
69239;BME280;56349;51.816;-0.026;2023-03-14T00:22:32;97986.53;;;27.22;26.72
69239;BME280;56349;51.816;-0.026;2023-03-14T00:24:58;97985.43;;;26.94;26.87
69239;BME280;56349;51.816;-0.026;2023-03-14T00:27:24;97987.69;;;26.67;27.05
69239;BME280;56349;51.816;-0.026;2023-03-14T00:29:50;97989.30;;;26.65;27.24
69239;BME280;56349;51.816;-0.026;2023-03-14T00:32:16;97991.55;;;26.09;27.46
69239;BME280;56349;51.816;-0.026;2023-03-14T00:34:42;97994.30;;;26.33;27.62
69239;BME280;56349;51.816;-0.026;2023-03-14T00:37:07;98000.92;;;25.80;27.89
69239;BME280;56349;51.816;-0.026;2023-03-14T00:39:33;98003.97;;;25.77;28.07
69239;BME280;56349;51.816;-0.026;2023-03-14T00:41:58;98015.06;;;25.50;28.29
69239;BME280;56349;51.816;-0.026;2023-03-14T00:44:24;98076.85;;;25.50;28.48
69239;BME280;56349;51.816;-0.026;2023-03-14T00:46:50;98112.52;;;25.52;28.67
69239;BME280;56349;51.816;-0.026;2023-03-14T00:49:15;98116.66;;;25.25;28.93
69239;BME280;56349;51.816;-0.026;2023-03-14T00:51:41;98127.28;;;25.02;29.12
69239;BME280;56349;51.816;-0.026;2023-03-14T00:54:07;98126.37;;;24.81;29.33
69239;BME280;56349;51.816;-0.026;2023-03-14T00:56:33;98130.15;;;24.60;29.52
69239;BME280;56349;51.816;-0.026;2023-03-14T00:58:59;98138.32;;;24.83;29.73
69239;BME280;56349;51.816;-0.026;2023-03-14T01:01:26;98145.91;;;24.65;29.89
69239;BME280;56349;51.816;-0.026;2023-03-14T01:03:52;98153.68;;;24.46;30.06
69239;BME280;56349;51.816;-0.026;2023-03-14T01:06:20;98162.68;;;24.26;30.28
69239;BME280;56349;51.816;-0.026;2023-03-14T01:08:43;98167.03;;;24.09;30.42
69239;BME280;56349;51.816;-0.026;2023-03-14T01:11:10;98185.60;;;23.94;30.59
69239;BME280;56349;51.816;-0.026;2023-03-14T01:13:35;98195.60;;;23.79;30.76
69239;BME280;56349;51.816;-0.026;2023-03-14T01:16:02;98200.00;;;23.93;30.88
69239;BME280;56349;51.816;-0.026;2023-03-14T01:18:25;98203.06;;;23.78;31.01
69239;BME280;56349;51.816;-0.026;2023-03-14T01:20:51;98214.69;;;23.87;31.16
69239;BME280;56349;51.816;-0.026;2023-03-14T01:23:17;98217.20;;;23.54;31.30
69239;BME280;56349;51.816;-0.026;2023-03-14T01:25:43;98227.35;;;23.16;31.40
69239;BME280;56349;51.816;-0.026;2023-03-14T01:28:08;98234.07;;;23.55;31.52
69239;BME280;56349;51.816;-0.026;2023-03-14T01:30:33;98244.54;;;23.43;31.66
69239;BME280;56349;51.816;-0.026;2023-03-14T01:32:59;98247.57;;;23.09;31.77
69239;BME280;56349;51.816;-0.026;2023-03-14T01:35:25;98259.42;;;23.19;31.90
69239;BME280;56349;51.816;-0.026;2023-03-14T01:37:51;98257.15;;;23.06;32.04
69239;BME280;56349;51.816;-0.026;2023-03-14T01:40:16;98267.38;;;22.95;32.16
69239;BME280;56349;51.816;-0.026;2023-03-14T01:42:45;98280.93;;;22.86;32.25
69239;BME280;56349;51.816;-0.026;2023-03-14T01:47:34;98290.53;;;22.71;32.46
69239;BME280;56349;51.816;-0.026;2023-03-14T01:50:04;98295.34;;;22.67;32.49
69239;BME280;56349;51.816;-0.026;2023-03-14T01:52:28;98303.96;;;22.64;32.55
69239;BME280;56349;51.816;-0.026;2023-03-14T01:54:52;98301.45;;;22.61;32.59
69239;BME280;56349;51.816;-0.026;2023-03-14T01:57:19;98312.65;;;22.55;32.67
69239;BME280;56349;51.816;-0.026;2023-03-14T01:59:45;98316.72;;;22.47;32.75
69239;BME280;56349;51.816;-0.026;2023-03-14T02:02:09;98323.26;;;22.43;32.80
69239;BME280;56349;51.816;-0.026;2023-03-14T02:04:34;98325.75;;;22.36;32.88
69239;BME280;56349;51.816;-0.026;2023-03-14T02:07:02;98338.17;;;22.30;32.93
69239;BME280;56349;51.816;-0.026;2023-03-14T02:09:24;98342.68;;;22.26;32.99
69239;BME280;56349;51.816;-0.026;2023-03-14T02:11:49;98346.42;;;22.48;33.04
69239;BME280;56349;51.816;-0.026;2023-03-14T02:14:22;98354.67;;;22.17;33.08
69239;BME280;56349;51.816;-0.026;2023-03-14T02:16:41;98359.79;;;22.12;33.15
69239;BME280;56349;51.816;-0.026;2023-03-14T02:19:07;98364.42;;;22.06;33.20
69239;BME280;56349;51.816;-0.026;2023-03-14T02:21:42;98365.43;;;22.29;33.25
69239;BME280;56349;51.816;-0.026;2023-03-14T02:24:05;98371.13;;;21.97;33.29
69239;BME280;56349;51.816;-0.026;2023-03-14T02:26:29;98380.94;;;22.20;33.34
69239;BME280;56349;51.816;-0.026;2023-03-14T02:28:50;98366.91;;;21.88;33.37
69239;BME280;56349;51.816;-0.026;2023-03-14T02:31:15;98381.10;;;22.34;33.40
69239;BME280;56349;51.816;-0.026;2023-03-14T02:33:41;98384.07;;;21.78;33.46
69239;BME280;56349;51.816;-0.026;2023-03-14T02:36:09;98386.62;;;21.99;33.51
69239;BME280;56349;51.816;-0.026;2023-03-14T02:38:34;98392.91;;;22.14;33.59
69239;BME280;56349;51.816;-0.026;2023-03-14T02:40:57;98401.81;;;22.09;33.63
69239;BME280;56349;51.816;-0.026;2023-03-14T02:43:23;98413.95;;;22.03;33.69
69239;BME280;56349;51.816;-0.026;2023-03-14T02:45:50;98419.33;;;21.94;33.77
69239;BME280;56349;51.816;-0.026;2023-03-14T02:48:18;98425.93;;;21.88;33.84
69239;BME280;56349;51.816;-0.026;2023-03-14T02:50:42;98428.11;;;21.83;33.89
69239;BME280;56349;51.816;-0.026;2023-03-14T02:53:06;98435.79;;;21.81;33.90
69239;BME280;56349;51.816;-0.026;2023-03-14T02:55:33;98442.62;;;21.52;33.95
69239;BME280;56349;51.816;-0.026;2023-03-14T02:57:58;98456.82;;;21.70;33.98
69239;BME280;56349;51.816;-0.026;2023-03-14T03:00:24;98460.45;;;21.64;34.04
69239;BME280;56349;51.816;-0.026;2023-03-14T03:02:49;98474.18;;;21.60;34.06
69239;BME280;56349;51.816;-0.026;2023-03-14T03:05:15;98487.18;;;21.55;34.10
69239;BME280;56349;51.816;-0.026;2023-03-14T03:07:41;98488.78;;;21.50;34.14
69239;BME280;56349;51.816;-0.026;2023-03-14T03:10:08;98498.85;;;21.47;34.17
69239;BME280;56349;51.816;-0.026;2023-03-14T03:12:32;98504.04;;;21.47;34.17
69239;BME280;56349;51.816;-0.026;2023-03-14T03:14:58;98510.27;;;21.45;34.18
69239;BME280;56349;51.816;-0.026;2023-03-14T03:17:24;98509.03;;;21.66;34.17
69239;BME280;56349;51.816;-0.026;2023-03-14T03:19:50;98510.48;;;21.40;34.20
69239;BME280;56349;51.816;-0.026;2023-03-14T03:22:16;98518.74;;;21.36;34.21
69239;BME280;56349;51.816;-0.026;2023-03-14T03:24:42;98519.41;;;21.30;34.26
69239;BME280;56349;51.816;-0.026;2023-03-14T03:27:09;98533.56;;;21.28;34.28
69239;BME280;56349;51.816;-0.026;2023-03-14T03:29:35;98534.33;;;21.47;34.27
69239;BME280;56349;51.816;-0.026;2023-03-14T03:32:01;98533.70;;;21.21;34.32
69239;BME280;56349;51.816;-0.026;2023-03-14T03:34:27;98547.97;;;21.39;34.34
69239;BME280;56349;51.816;-0.026;2023-03-14T03:36:55;98557.64;;;21.15;34.35
69239;BME280;56349;51.816;-0.026;2023-03-14T03:39:17;98565.64;;;21.13;34.36
69239;BME280;56349;51.816;-0.026;2023-03-14T03:41:43;98574.08;;;21.31;34.38
69239;BME280;56349;51.816;-0.026;2023-03-14T03:44:09;98580.49;;;21.26;34.41
69239;BME280;56349;51.816;-0.026;2023-03-14T03:46:35;98581.40;;;21.22;34.44
69239;BME280;56349;51.816;-0.026;2023-03-14T03:49:01;98589.02;;;21.16;34.49
69239;BME280;56349;51.816;-0.026;2023-03-14T03:51:27;98598.28;;;21.40;34.53
69239;BME280;56349;51.816;-0.026;2023-03-14T03:53:52;98600.35;;;21.15;34.50
69239;BME280;56349;51.816;-0.026;2023-03-14T03:56:19;98604.70;;;21.11;34.50
69239;BME280;56349;51.816;-0.026;2023-03-14T03:58:45;98603.23;;;21.09;34.52
69239;BME280;56349;51.816;-0.026;2023-03-14T04:01:11;98613.27;;;21.30;34.56
69239;BME280;56349;51.816;-0.026;2023-03-14T04:03:36;98618.60;;;20.78;34.59
69239;BME280;56349;51.816;-0.026;2023-03-14T04:06:02;98623.52;;;20.76;34.59
69239;BME280;56349;51.816;-0.026;2023-03-14T04:08:26;98630.30;;;20.73;34.61
69239;BME280;56349;51.816;-0.026;2023-03-14T04:10:55;98632.67;;;20.72;34.60
69239;BME280;56349;51.816;-0.026;2023-03-14T04:13:17;98638.55;;;20.94;34.59
69239;BME280;56349;51.816;-0.026;2023-03-14T04:15:44;98640.75;;;20.92;34.60
69239;BME280;56349;51.816;-0.026;2023-03-14T04:18:10;98646.02;;;20.88;34.60
69239;BME280;56349;51.816;-0.026;2023-03-14T04:20:36;98650.40;;;20.62;34.64
69239;BME280;56349;51.816;-0.026;2023-03-14T04:23:02;98651.92;;;20.81;34.64
69239;BME280;56349;51.816;-0.026;2023-03-14T04:25:28;98661.99;;;20.80;34.64
69239;BME280;56349;51.816;-0.026;2023-03-14T04:27:54;98675.26;;;21.04;34.66
69239;BME280;56349;51.816;-0.026;2023-03-14T04:30:20;98687.80;;;20.75;34.69
69239;BME280;56349;51.816;-0.026;2023-03-14T04:32:47;98699.31;;;20.99;34.77
69239;BME280;56349;51.816;-0.026;2023-03-14T04:35:12;98703.91;;;21.01;34.83
69239;BME280;56349;51.816;-0.026;2023-03-14T04:37:38;98710.27;;;20.78;34.87
69239;BME280;56349;51.816;-0.026;2023-03-14T04:40:05;98715.57;;;20.86;34.85
69239;BME280;56349;51.816;-0.026;2023-03-14T04:42:29;98713.51;;;20.95;34.80
69239;BME280;56349;51.816;-0.026;2023-03-14T04:44:55;98731.87;;;21.09;34.71
69239;BME280;56349;51.816;-0.026;2023-03-14T04:47:21;98735.11;;;21.23;34.58
69239;BME280;56349;51.816;-0.026;2023-03-14T04:49:47;98737.95;;;21.19;34.35
69239;BME280;56349;51.816;-0.026;2023-03-14T04:52:13;98738.16;;;21.38;34.12
69239;BME280;56349;51.816;-0.026;2023-03-14T04:54:39;98741.88;;;21.53;33.91
69239;BME280;56349;51.816;-0.026;2023-03-14T04:57:05;98752.27;;;21.66;33.68
69239;BME280;56349;51.816;-0.026;2023-03-14T04:59:32;98758.74;;;21.79;33.48
69239;BME280;56349;51.816;-0.026;2023-03-14T05:01:58;98762.28;;;21.88;33.30
69239;BME280;56349;51.816;-0.026;2023-03-14T05:04:24;98762.41;;;21.92;33.15
69239;BME280;56349;51.816;-0.026;2023-03-14T05:06:49;98768.66;;;21.93;33.08
69239;BME280;56349;51.816;-0.026;2023-03-14T05:09:15;98777.09;;;21.44;33.06
69239;BME280;56349;51.816;-0.026;2023-03-14T05:11:41;98776.49;;;21.40;33.10
69239;BME280;56349;51.816;-0.026;2023-03-14T05:14:06;98780.63;;;22.06;33.19
69239;BME280;56349;51.816;-0.026;2023-03-14T05:16:32;98786.48;;;21.82;33.27
69239;BME280;56349;51.816;-0.026;2023-03-14T05:18:58;98785.45;;;21.75;33.42
69239;BME280;56349;51.816;-0.026;2023-03-14T05:21:24;98789.35;;;21.73;33.54
69239;BME280;56349;51.816;-0.026;2023-03-14T05:23:50;98793.35;;;21.48;33.69
69239;BME280;56349;51.816;-0.026;2023-03-14T05:26:16;98799.13;;;21.52;33.77
69239;BME280;56349;51.816;-0.026;2023-03-14T05:28:42;98803.70;;;21.74;33.89
69239;BME280;56349;51.816;-0.026;2023-03-14T05:31:08;98811.92;;;21.72;34.04
69239;BME280;56349;51.816;-0.026;2023-03-14T05:33:33;98819.61;;;21.47;34.20
69239;BME280;56349;51.816;-0.026;2023-03-14T05:35:59;98827.75;;;21.66;34.38
69239;BME280;56349;51.816;-0.026;2023-03-14T05:38:25;98831.35;;;21.64;34.54
69239;BME280;56349;51.816;-0.026;2023-03-14T05:40:52;98837.11;;;21.66;34.63
69239;BME280;56349;51.816;-0.026;2023-03-14T05:43:18;98840.92;;;21.65;34.72
69239;BME280;56349;51.816;-0.026;2023-03-14T05:45:44;98846.81;;;21.65;34.82
69239;BME280;56349;51.816;-0.026;2023-03-14T05:48:10;98854.79;;;21.65;34.90
69239;BME280;56349;51.816;-0.026;2023-03-14T05:50:35;98863.08;;;21.65;34.95
69239;BME280;56349;51.816;-0.026;2023-03-14T05:53:00;98876.18;;;21.67;35.01
69239;BME280;56349;51.816;-0.026;2023-03-14T05:55:26;98883.62;;;21.68;35.05
69239;BME280;56349;51.816;-0.026;2023-03-14T05:57:53;98888.74;;;21.69;35.09
69239;BME280;56349;51.816;-0.026;2023-03-14T06:00:18;98898.78;;;21.70;35.12
69239;BME280;56349;51.816;-0.026;2023-03-14T06:02:43;98899.61;;;21.72;35.12
69239;BME280;56349;51.816;-0.026;2023-03-14T06:05:09;98910.12;;;21.72;35.13
69239;BME280;56349;51.816;-0.026;2023-03-14T06:07:34;98912.99;;;21.75;35.13
69239;BME280;56349;51.816;-0.026;2023-03-14T06:09:59;98926.35;;;21.80;35.09
69239;BME280;56349;51.816;-0.026;2023-03-14T06:12:24;98935.96;;;21.83;35.08
69239;BME280;56349;51.816;-0.026;2023-03-14T06:14:50;98937.40;;;21.63;35.05
69239;BME280;56349;51.816;-0.026;2023-03-14T06:17:16;98939.99;;;21.88;35.02
69239;BME280;56349;51.816;-0.026;2023-03-14T06:19:42;98947.09;;;21.90;35.00
69239;BME280;56349;51.816;-0.026;2023-03-14T06:22:08;98957.84;;;21.90;35.00
69239;BME280;56349;51.816;-0.026;2023-03-14T06:24:35;98964.44;;;21.91;34.97
69239;BME280;56349;51.816;-0.026;2023-03-14T06:27:00;98974.50;;;21.93;34.95
69239;BME280;56349;51.816;-0.026;2023-03-14T06:29:26;98983.86;;;21.71;34.93
69239;BME280;56349;51.816;-0.026;2023-03-14T06:31:52;98995.60;;;21.92;34.89
69239;BME280;56349;51.816;-0.026;2023-03-14T06:34:18;99002.70;;;21.92;34.82
69239;BME280;56349;51.816;-0.026;2023-03-14T06:36:44;99016.73;;;21.71;34.75
69239;BME280;56349;51.816;-0.026;2023-03-14T06:39:10;99029.71;;;21.95;34.64
69239;BME280;56349;51.816;-0.026;2023-03-14T06:41:36;99039.73;;;21.91;34.60
69239;BME280;56349;51.816;-0.026;2023-03-14T06:44:03;99044.87;;;21.88;34.52
69239;BME280;56349;51.816;-0.026;2023-03-14T06:46:28;99056.60;;;21.88;34.44
69239;BME280;56349;51.816;-0.026;2023-03-14T06:48:53;99062.64;;;21.91;34.30
69239;BME280;56349;51.816;-0.026;2023-03-14T06:51:18;99071.55;;;22.10;34.24
69239;BME280;56349;51.816;-0.026;2023-03-14T06:53:44;99082.03;;;21.86;34.15
69239;BME280;56349;51.816;-0.026;2023-03-14T06:56:10;99090.51;;;21.84;34.08
69239;BME280;56349;51.816;-0.026;2023-03-14T06:58:36;99099.99;;;21.83;34.03
69239;BME280;56349;51.816;-0.026;2023-03-14T07:01:03;99111.53;;;22.02;33.95
69239;BME280;56349;51.816;-0.026;2023-03-14T07:03:28;99114.99;;;21.77;33.91
69239;BME280;56349;51.816;-0.026;2023-03-14T07:05:54;99125.70;;;21.74;33.84
69239;BME280;56349;51.816;-0.026;2023-03-14T07:08:19;99134.79;;;21.90;33.83
69239;BME280;56349;51.816;-0.026;2023-03-14T07:10:45;99144.57;;;21.85;33.81
69239;BME280;56349;51.816;-0.026;2023-03-14T07:13:11;99154.91;;;21.58;33.61
69239;BME280;56349;51.816;-0.026;2023-03-14T07:15:37;99162.46;;;21.54;33.58
69239;BME280;56349;51.816;-0.026;2023-03-14T07:18:03;99171.81;;;21.48;33.64
69239;BME280;56349;51.816;-0.026;2023-03-14T07:20:29;99183.71;;;21.62;33.73
69239;BME280;56349;51.816;-0.026;2023-03-14T07:22:55;99191.13;;;21.58;33.81
69239;BME280;56349;51.816;-0.026;2023-03-14T07:25:21;99201.69;;;21.36;33.80
69239;BME280;56349;51.816;-0.026;2023-03-14T07:27:47;99212.80;;;21.86;33.79
69239;BME280;56349;51.816;-0.026;2023-03-14T07:30:14;99224.43;;;21.38;33.83
69239;BME280;56349;51.816;-0.026;2023-03-14T07:32:39;99234.96;;;21.40;33.89
69239;BME280;56349;51.816;-0.026;2023-03-14T07:35:07;99241.64;;;21.65;33.95
69239;BME280;56349;51.816;-0.026;2023-03-14T07:37:31;99253.14;;;21.69;34.10
69239;BME280;56349;51.816;-0.026;2023-03-14T07:39:57;99262.29;;;21.72;34.24
69239;BME280;56349;51.816;-0.026;2023-03-14T07:42:23;99272.77;;;21.56;34.31
69239;BME280;56349;51.816;-0.026;2023-03-14T07:44:49;99286.10;;;21.69;34.31
69239;BME280;56349;51.816;-0.026;2023-03-14T07:47:15;99301.13;;;21.86;34.26
69239;BME280;56349;51.816;-0.026;2023-03-14T07:49:40;99306.54;;;22.09;34.11
69239;BME280;56349;51.816;-0.026;2023-03-14T07:52:06;99312.37;;;22.11;33.94
69239;BME280;56349;51.816;-0.026;2023-03-14T07:54:32;99324.27;;;22.60;33.72
69239;BME280;56349;51.816;-0.026;2023-03-14T07:56:58;99340.20;;;22.41;33.49
69239;BME280;56349;51.816;-0.026;2023-03-14T07:59:24;99347.38;;;22.70;33.21
69239;BME280;56349;51.816;-0.026;2023-03-14T08:01:50;99356.04;;;22.73;32.97
69239;BME280;56349;51.816;-0.026;2023-03-14T08:04:16;99369.09;;;23.07;32.79
69239;BME280;56349;51.816;-0.026;2023-03-14T08:06:43;99377.14;;;23.11;32.57
69239;BME280;56349;51.816;-0.026;2023-03-14T08:09:08;99389.60;;;23.41;32.26
69239;BME280;56349;51.816;-0.026;2023-03-14T08:11:33;99401.78;;;23.50;31.93
69239;BME280;56349;51.816;-0.026;2023-03-14T08:13:59;99411.27;;;23.56;31.59
69239;BME280;56349;51.816;-0.026;2023-03-14T08:16:25;99421.96;;;23.80;31.29
69239;BME280;56349;51.816;-0.026;2023-03-14T08:18:50;99434.91;;;24.23;31.10
69239;BME280;56349;51.816;-0.026;2023-03-14T08:21:16;99445.86;;;24.35;30.91
69239;BME280;56349;51.816;-0.026;2023-03-14T08:23:42;99453.90;;;24.48;30.73
69239;BME280;56349;51.816;-0.026;2023-03-14T08:26:08;99463.07;;;24.38;30.52
69239;BME280;56349;51.816;-0.026;2023-03-14T08:28:34;99469.95;;;24.23;30.35
69239;BME280;56349;51.816;-0.026;2023-03-14T08:31:00;99483.59;;;24.42;30.10
69239;BME280;56349;51.816;-0.026;2023-03-14T08:33:26;99487.63;;;24.53;29.94
69239;BME280;56349;51.816;-0.026;2023-03-14T08:35:52;99495.72;;;24.93;29.74
69239;BME280;56349;51.816;-0.026;2023-03-14T08:38:17;99505.80;;;24.87;29.57
69239;BME280;56349;51.816;-0.026;2023-03-14T08:40:43;99514.14;;;24.76;29.39
69239;BME280;56349;51.816;-0.026;2023-03-14T08:43:09;99524.76;;;24.86;29.24
69239;BME280;56349;51.816;-0.026;2023-03-14T08:45:35;99535.29;;;25.19;29.07
69239;BME280;56349;51.816;-0.026;2023-03-14T08:48:01;99544.29;;;25.27;28.93
69239;BME280;56349;51.816;-0.026;2023-03-14T08:50:27;99554.75;;;24.68;28.78
69239;BME280;56349;51.816;-0.026;2023-03-14T08:52:53;99565.14;;;25.27;28.63
69239;BME280;56349;51.816;-0.026;2023-03-14T08:55:19;99574.44;;;25.21;28.47
69239;BME280;56349;51.816;-0.026;2023-03-14T08:57:45;99582.98;;;25.30;28.30
69239;BME280;56349;51.816;-0.026;2023-03-14T09:00:11;99588.56;;;25.69;28.01
69239;BME280;56349;51.816;-0.026;2023-03-14T09:02:36;99597.79;;;25.47;27.96
69239;BME280;56349;51.816;-0.026;2023-03-14T09:05:02;99605.89;;;25.72;27.96
69239;BME280;56349;51.816;-0.026;2023-03-14T09:07:27;99619.82;;;25.73;28.07
69239;BME280;56349;51.816;-0.026;2023-03-14T09:09:53;99625.10;;;25.54;28.09
69239;BME280;56349;51.816;-0.026;2023-03-14T09:12:19;99634.75;;;25.29;28.11
69239;BME280;56349;51.816;-0.026;2023-03-14T09:14:45;99642.79;;;25.62;28.06
69239;BME280;56349;51.816;-0.026;2023-03-14T09:17:12;99656.32;;;25.43;28.00
69239;BME280;56349;51.816;-0.026;2023-03-14T09:19:38;99658.51;;;25.87;27.84
69239;BME280;56349;51.816;-0.026;2023-03-14T09:22:04;99670.06;;;25.66;27.85
69239;BME280;56349;51.816;-0.026;2023-03-14T09:24:30;99677.73;;;25.78;27.69
69239;BME280;56349;51.816;-0.026;2023-03-14T09:26:55;99687.23;;;25.87;27.65
69239;BME280;56349;51.816;-0.026;2023-03-14T09:29:22;99695.68;;;25.78;27.69
69239;BME280;56349;51.816;-0.026;2023-03-14T09:31:47;99700.02;;;25.77;27.57
69239;BME280;56349;51.816;-0.026;2023-03-14T09:34:13;99710.44;;;25.70;27.50
69239;BME280;56349;51.816;-0.026;2023-03-14T09:36:39;99717.01;;;25.63;27.42
69239;BME280;56349;51.816;-0.026;2023-03-14T09:39:05;99727.35;;;25.53;27.33
69239;BME280;56349;51.816;-0.026;2023-03-14T09:41:33;99731.70;;;25.64;27.31
69239;BME280;56349;51.816;-0.026;2023-03-14T09:44:02;99739.20;;;25.13;27.44
69239;BME280;56349;51.816;-0.026;2023-03-14T09:46:21;99740.16;;;25.37;27.61
69239;BME280;56349;51.816;-0.026;2023-03-14T09:48:46;99748.70;;;25.25;27.58
69239;BME280;56349;51.816;-0.026;2023-03-14T09:51:14;99756.84;;;25.09;27.59
69239;BME280;56349;51.816;-0.026;2023-03-14T09:53:40;99761.41;;;24.87;27.69
69239;BME280;56349;51.816;-0.026;2023-03-14T09:56:03;99763.37;;;24.86;27.81
69239;BME280;56349;51.816;-0.026;2023-03-14T09:58:29;99759.43;;;24.89;27.93
69239;BME280;56349;51.816;-0.026;2023-03-14T10:00:56;99767.60;;;24.39;28.09
69239;BME280;56349;51.816;-0.026;2023-03-14T10:03:25;99774.69;;;24.45;28.20
69239;BME280;56349;51.816;-0.026;2023-03-14T10:05:46;99780.45;;;24.41;28.46
69239;BME280;56349;51.816;-0.026;2023-03-14T10:08:13;99783.54;;;24.22;28.58
69239;BME280;56349;51.816;-0.026;2023-03-14T10:10:38;99783.74;;;24.24;28.74
69239;BME280;56349;51.816;-0.026;2023-03-14T10:13:14;99784.15;;;24.04;28.89
69239;BME280;56349;51.816;-0.026;2023-03-14T10:15:31;99792.26;;;24.11;29.13
69239;BME280;56349;51.816;-0.026;2023-03-14T10:17:54;99799.57;;;23.65;29.32
69239;BME280;56349;51.816;-0.026;2023-03-14T10:20:30;99802.04;;;23.45;29.54
69239;BME280;56349;51.816;-0.026;2023-03-14T10:22:46;99823.11;;;23.26;29.84
69239;BME280;56349;51.816;-0.026;2023-03-14T10:25:23;99833.06;;;23.37;30.04
69239;BME280;56349;51.816;-0.026;2023-03-14T10:27:37;99845.55;;;22.93;30.18
69239;BME280;56349;51.816;-0.026;2023-03-14T10:30:07;99853.46;;;23.27;30.38
69239;BME280;56349;51.816;-0.026;2023-03-14T10:32:33;99863.23;;;23.10;30.59
69239;BME280;56349;51.816;-0.026;2023-03-14T10:35:06;99865.80;;;22.96;30.79
69239;BME280;56349;51.816;-0.026;2023-03-14T10:37:22;99876.32;;;22.85;30.87
69239;BME280;56349;51.816;-0.026;2023-03-14T10:39:47;99882.34;;;22.70;31.06
69239;BME280;56349;51.816;-0.026;2023-03-14T10:42:17;99885.38;;;22.58;31.27
69239;BME280;56349;51.816;-0.026;2023-03-14T10:44:37;99892.10;;;22.44;31.53
69239;BME280;56349;51.816;-0.026;2023-03-14T10:47:03;99899.10;;;22.62;31.71
69239;BME280;56349;51.816;-0.026;2023-03-14T10:49:29;99903.39;;;22.31;31.86
69239;BME280;56349;51.816;-0.026;2023-03-14T10:51:54;99912.28;;;22.34;31.94
69239;BME280;56349;51.816;-0.026;2023-03-14T10:54:21;99912.79;;;22.41;32.01
69239;BME280;56349;51.816;-0.026;2023-03-14T10:59:14;99920.71;;;22.70;31.94
69239;BME280;56349;51.816;-0.026;2023-03-14T11:01:40;99922.24;;;22.88;31.82
69239;BME280;56349;51.816;-0.026;2023-03-14T11:04:10;99930.88;;;23.09;31.67
69239;BME280;56349;51.816;-0.026;2023-03-14T11:06:36;99936.14;;;23.02;31.53
69239;BME280;56349;51.816;-0.026;2023-03-14T11:08:59;99946.56;;;22.94;31.38
69239;BME280;56349;51.816;-0.026;2023-03-14T11:11:22;99955.04;;;23.60;31.23
69239;BME280;56349;51.816;-0.026;2023-03-14T11:13:52;99963.79;;;23.29;31.06
69239;BME280;56349;51.816;-0.026;2023-03-14T11:16:16;99970.36;;;23.50;30.89
69239;BME280;56349;51.816;-0.026;2023-03-14T11:18:46;99971.46;;;23.66;30.75
69239;BME280;56349;51.816;-0.026;2023-03-14T11:21:06;99970.55;;;23.62;30.58
69239;BME280;56349;51.816;-0.026;2023-03-14T11:23:31;99976.79;;;23.79;30.40
69239;BME280;56349;51.816;-0.026;2023-03-14T11:25:56;99985.43;;;23.94;30.24
69239;BME280;56349;51.816;-0.026;2023-03-14T11:28:22;99990.25;;;24.09;30.06
69239;BME280;56349;51.816;-0.026;2023-03-14T11:30:50;99993.98;;;23.98;29.92
69239;BME280;56349;51.816;-0.026;2023-03-14T11:33:14;99997.65;;;24.35;29.73
69239;BME280;56349;51.816;-0.026;2023-03-14T11:35:38;100002.84;;;24.33;29.54
69239;BME280;56349;51.816;-0.026;2023-03-14T11:38:12;100011.43;;;24.43;29.47
69239;BME280;56349;51.816;-0.026;2023-03-14T11:40:28;100023.03;;;24.29;29.32
69239;BME280;56349;51.816;-0.026;2023-03-14T11:42:59;100028.55;;;24.27;29.20
69239;BME280;56349;51.816;-0.026;2023-03-14T11:45:22;100031.04;;;24.34;29.19
69239;BME280;56349;51.816;-0.026;2023-03-14T11:47:46;100036.47;;;24.75;28.92
69239;BME280;56349;51.816;-0.026;2023-03-14T11:50:15;100036.46;;;24.65;28.80
69239;BME280;56349;51.816;-0.026;2023-03-14T11:52:40;100042.52;;;24.73;28.71
69239;BME280;56349;51.816;-0.026;2023-03-14T11:55:07;100043.52;;;24.79;28.65
69239;BME280;56349;51.816;-0.026;2023-03-14T11:57:28;100043.82;;;24.89;28.56
69239;BME280;56349;51.816;-0.026;2023-03-14T11:59:57;100044.37;;;25.01;28.40
69239;BME280;56349;51.816;-0.026;2023-03-14T12:02:25;100050.14;;;24.65;28.27
69239;BME280;56349;51.816;-0.026;2023-03-14T12:04:54;100047.08;;;25.26;28.13
69239;BME280;56349;51.816;-0.026;2023-03-14T12:07:17;100050.82;;;25.32;28.05
69239;BME280;56349;51.816;-0.026;2023-03-14T12:09:36;100059.58;;;24.96;27.89
69239;BME280;56349;51.816;-0.026;2023-03-14T12:12:03;100064.33;;;25.06;27.77
69239;BME280;56349;51.816;-0.026;2023-03-14T12:14:29;100063.53;;;25.11;27.66
69239;BME280;56349;51.816;-0.026;2023-03-14T12:16:56;100066.00;;;25.19;27.54
69239;BME280;56349;51.816;-0.026;2023-03-14T12:19:28;100068.29;;;25.28;27.40
69239;BME280;56349;51.816;-0.026;2023-03-14T12:21:48;100066.39;;;25.33;27.26
69239;BME280;56349;51.816;-0.026;2023-03-14T12:24:18;100073.86;;;25.39;27.13
69239;BME280;56349;51.816;-0.026;2023-03-14T12:26:44;100075.37;;;25.42;27.03
69239;BME280;56349;51.816;-0.026;2023-03-14T12:29:11;100079.59;;;25.46;26.98
69239;BME280;56349;51.816;-0.026;2023-03-14T12:34:01;100082.63;;;25.53;26.76
69239;BME280;56349;51.816;-0.026;2023-03-14T12:38:52;100084.69;;;25.65;26.63
69239;BME280;56349;51.816;-0.026;2023-03-14T12:41:15;100085.20;;;25.68;26.49
69239;BME280;56349;51.816;-0.026;2023-03-14T12:43:36;100084.17;;;25.68;26.45
69239;BME280;56349;51.816;-0.026;2023-03-14T12:48:27;100080.73;;;25.81;26.11
69239;BME280;56349;51.816;-0.026;2023-03-14T12:50:55;100087.13;;;25.83;26.14
69239;BME280;56349;51.816;-0.026;2023-03-14T12:53:36;100091.47;;;25.84;26.12